sensor_id;sensor_type;location;lat;lon;timestamp;pressure;altitude;pressure_sealevel;temperature;humidity
2178;BME280;1095;50.992;6.798;2022-09-09T00:02:00;100163.88;;;16.17;95.95
2178;BME280;1095;50.992;6.798;2022-09-09T00:04:29;100156.56;;;16.13;95.43
2178;BME280;1095;50.992;6.798;2022-09-09T00:07:03;100157.97;;;16.15;95.50
2178;BME280;1095;50.992;6.798;2022-09-09T00:09:35;100156.56;;;16.19;94.79
2178;BME280;1095;50.992;6.798;2022-09-09T00:12:10;100151.91;;;16.21;95.69
2178;BME280;1095;50.992;6.798;2022-09-09T00:14:48;100150.88;;;16.22;96.30
2178;BME280;1095;50.992;6.798;2022-09-09T00:17:25;100145.19;;;16.25;96.51
2178;BME280;1095;50.992;6.798;2022-09-09T00:20:01;100143.38;;;16.33;94.80
2178;BME280;1095;50.992;6.798;2022-09-09T00:22:30;100145.59;;;16.42;95.85
2178;BME280;1095;50.992;6.798;2022-09-09T00:25:03;100141.13;;;16.36;96.00
2178;BME280;1095;50.992;6.798;2022-09-09T00:27:37;100151.69;;;16.36;96.84
2178;BME280;1095;50.992;6.798;2022-09-09T00:30:16;100154.72;;;16.40;97.55
2178;BME280;1095;50.992;6.798;2022-09-09T00:32:45;100160.22;;;16.38;97.65
2178;BME280;1095;50.992;6.798;2022-09-09T00:35:17;100153.72;;;16.34;97.48
2178;BME280;1095;50.992;6.798;2022-09-09T00:37:46;100164.69;;;16.38;97.74
2178;BME280;1095;50.992;6.798;2022-09-09T00:40:22;100163.66;;;16.39;97.92
2178;BME280;1095;50.992;6.798;2022-09-09T00:42:54;100154.94;;;16.38;97.87
2178;BME280;1095;50.992;6.798;2022-09-09T00:45:46;100156.34;;;16.34;97.65
2178;BME280;1095;50.992;6.798;2022-09-09T00:48:20;100139.31;;;16.23;97.16
2178;BME280;1095;50.992;6.798;2022-09-09T00:50:52;100156.16;;;16.29;98.60
2178;BME280;1095;50.992;6.798;2022-09-09T00:53:30;100152.91;;;16.20;99.18
2178;BME280;1095;50.992;6.798;2022-09-09T00:56:09;100147.22;;;16.10;99.71
2178;BME280;1095;50.992;6.798;2022-09-09T00:58:38;100156.56;;;16.13;100.00
2178;BME280;1095;50.992;6.798;2022-09-09T01:01:12;100154.97;;;16.05;100.00
2178;BME280;1095;50.992;6.798;2022-09-09T01:09:50;100151.09;;;15.88;100.00
2178;BME280;1095;50.992;6.798;2022-09-09T01:12:42;100133.81;;;15.72;100.00
2178;BME280;1095;50.992;6.798;2022-09-09T01:15:52;100162.25;;;15.83;100.00
2178;BME280;1095;50.992;6.798;2022-09-09T01:19:32;100157.56;;;15.79;100.00
2178;BME280;1095;50.992;6.798;2022-09-09T01:22:08;100137.28;;;15.59;100.00
2178;BME280;1095;50.992;6.798;2022-09-09T01:28:27;100131.16;;;15.52;100.00
2178;BME280;1095;50.992;6.798;2022-09-09T01:31:21;100145.38;;;15.65;100.00
2178;BME280;1095;50.992;6.798;2022-09-09T01:37:24;100138.66;;;15.55;100.00
2178;BME280;1095;50.992;6.798;2022-09-09T01:39:51;100148.59;;;15.60;100.00
2178;BME280;1095;50.992;6.798;2022-09-09T01:42:17;100148.41;;;15.55;100.00
2178;BME280;1095;50.992;6.798;2022-09-09T01:44:45;100151.41;;;15.45;100.00
2178;BME280;1095;50.992;6.798;2022-09-09T01:47:12;100148.78;;;15.45;100.00
2178;BME280;1095;50.992;6.798;2022-09-09T01:49:39;100154.03;;;15.39;100.00
2178;BME280;1095;50.992;6.798;2022-09-09T01:52:05;100155.84;;;15.38;100.00
2178;BME280;1095;50.992;6.798;2022-09-09T01:54:33;100146.31;;;15.37;100.00
2178;BME280;1095;50.992;6.798;2022-09-09T01:57:06;100145.50;;;15.37;100.00
2178;BME280;1095;50.992;6.798;2022-09-09T01:59:51;100155.66;;;15.46;100.00
2178;BME280;1095;50.992;6.798;2022-09-09T02:02:25;100155.88;;;15.51;100.00
2178;BME280;1095;50.992;6.798;2022-09-09T02:05:03;100155.75;;;15.59;98.90
2178;BME280;1095;50.992;6.798;2022-09-09T02:07:38;100150.03;;;15.63;98.16
2178;BME280;1095;50.992;6.798;2022-09-09T02:10:10;100154.50;;;15.69;98.14
2178;BME280;1095;50.992;6.798;2022-09-09T02:12:42;100154.50;;;15.69;98.27
2178;BME280;1095;50.992;6.798;2022-09-09T02:15:22;100148.00;;;15.65;98.10
2178;BME280;1095;50.992;6.798;2022-09-09T02:17:52;100150.66;;;15.65;98.18
2178;BME280;1095;50.992;6.798;2022-09-09T02:20:20;100150.00;;;15.56;98.00
2178;BME280;1095;50.992;6.798;2022-09-09T02:22:49;100149.84;;;15.57;98.63
2178;BME280;1095;50.992;6.798;2022-09-09T02:25:20;100146.19;;;15.58;99.00
2178;BME280;1095;50.992;6.798;2022-09-09T02:27:50;100144.75;;;15.56;98.93
2178;BME280;1095;50.992;6.798;2022-09-09T02:30:19;100150.03;;;15.63;99.08
2178;BME280;1095;50.992;6.798;2022-09-09T02:32:48;100147.59;;;15.61;98.79
2178;BME280;1095;50.992;6.798;2022-09-09T02:35:20;100145.56;;;15.63;98.95
2178;BME280;1095;50.992;6.798;2022-09-09T02:37:48;100141.09;;;15.64;98.68
2178;BME280;1095;50.992;6.798;2022-09-09T02:40:18;100152.09;;;15.74;98.38
2178;BME280;1095;50.992;6.798;2022-09-09T02:42:47;100145.59;;;15.70;98.50
2178;BME280;1095;50.992;6.798;2022-09-09T02:45:18;100135.63;;;15.65;98.60
2178;BME280;1095;50.992;6.798;2022-09-09T02:47:50;100147.59;;;15.61;98.70
2178;BME280;1095;50.992;6.798;2022-09-09T02:50:22;100144.34;;;15.66;98.64
2178;BME280;1095;50.992;6.798;2022-09-09T02:53:01;100141.50;;;15.60;98.45
2178;BME280;1095;50.992;6.798;2022-09-09T02:55:37;100136.22;;;15.60;98.40
2178;BME280;1095;50.992;6.798;2022-09-09T02:58:07;100135.41;;;15.60;99.13
2178;BME280;1095;50.992;6.798;2022-09-09T03:00:39;100138.06;;;15.60;98.43
2178;BME280;1095;50.992;6.798;2022-09-09T03:03:07;100132.59;;;15.62;98.37
2178;BME280;1095;50.992;6.798;2022-09-09T03:05:34;100135.84;;;15.64;97.97
2178;BME280;1095;50.992;6.798;2022-09-09T03:08:01;100141.31;;;15.69;98.71
2178;BME280;1095;50.992;6.798;2022-09-09T03:10:28;100131.78;;;15.68;98.15
2178;BME280;1095;50.992;6.798;2022-09-09T03:12:55;100140.50;;;15.68;97.95
2178;BME280;1095;50.992;6.798;2022-09-09T03:15:21;100139.91;;;15.73;98.46
2178;BME280;1095;50.992;6.798;2022-09-09T03:17:49;100138.47;;;15.70;98.38
2178;BME280;1095;50.992;6.798;2022-09-09T03:20:17;100139.31;;;15.77;97.72
2178;BME280;1095;50.992;6.798;2022-09-09T03:22:44;100134.22;;;15.76;98.09
2178;BME280;1095;50.992;6.798;2022-09-09T03:25:10;100138.91;;;15.74;98.12
2178;BME280;1095;50.992;6.798;2022-09-09T03:27:37;100128.16;;;15.75;97.94
2178;BME280;1095;50.992;6.798;2022-09-09T03:30:04;100142.16;;;15.76;98.38
2178;BME280;1095;50.992;6.798;2022-09-09T03:32:31;100131.81;;;15.81;98.34
2178;BME280;1095;50.992;6.798;2022-09-09T03:34:59;100134.03;;;15.77;98.11
2178;BME280;1095;50.992;6.798;2022-09-09T03:37:26;100136.47;;;15.79;98.28
2178;BME280;1095;50.992;6.798;2022-09-09T03:39:53;100135.06;;;15.83;98.04
2178;BME280;1095;50.992;6.798;2022-09-09T03:42:20;100136.47;;;15.85;98.13
2178;BME280;1095;50.992;6.798;2022-09-09T03:44:48;100138.72;;;15.88;98.20
2178;BME280;1095;50.992;6.798;2022-09-09T03:47:15;100131.19;;;15.85;98.40
2178;BME280;1095;50.992;6.798;2022-09-09T03:49:42;100139.53;;;15.89;98.06
2178;BME280;1095;50.992;6.798;2022-09-09T03:52:10;100136.28;;;15.87;98.41
2178;BME280;1095;50.992;6.798;2022-09-09T03:54:37;100134.44;;;15.87;98.38
2178;BME280;1095;50.992;6.798;2022-09-09T03:57:04;100137.28;;;15.92;98.16
2178;BME280;1095;50.992;6.798;2022-09-09T03:59:31;100139.13;;;15.92;98.03
2178;BME280;1095;50.992;6.798;2022-09-09T04:01:58;100125.72;;;15.93;98.07
2178;BME280;1095;50.992;6.798;2022-09-09T04:04:25;100139.94;;;15.99;98.23
2178;BME280;1095;50.992;6.798;2022-09-09T04:06:52;100139.72;;;15.94;98.06
2178;BME280;1095;50.992;6.798;2022-09-09T04:09:21;100135.88;;;15.97;97.97
2178;BME280;1095;50.992;6.798;2022-09-09T04:11:47;100138.94;;;16.00;97.68
2178;BME280;1095;50.992;6.798;2022-09-09T04:14:15;100138.94;;;16.00;97.38
2178;BME280;1095;50.992;6.798;2022-09-09T04:16:42;100140.53;;;16.08;97.63
2178;BME280;1095;50.992;6.798;2022-09-09T04:19:09;100137.91;;;16.01;97.10
2178;BME280;1095;50.992;6.798;2022-09-09T04:21:38;100143.81;;;16.03;97.70
2178;BME280;1095;50.992;6.798;2022-09-09T04:24:06;100138.69;;;16.08;96.98
2178;BME280;1095;50.992;6.798;2022-09-09T04:26:35;100135.88;;;16.03;97.29
2178;BME280;1095;50.992;6.798;2022-09-09T04:29:03;100127.75;;;16.05;96.97
2178;BME280;1095;50.992;6.798;2022-09-09T04:31:30;100139.13;;;16.05;97.20
2178;BME280;1095;50.992;6.798;2022-09-09T04:34:00;100133.84;;;16.05;97.51
2178;BME280;1095;50.992;6.798;2022-09-09T04:36:33;100136.28;;;16.07;97.64
2178;BME280;1095;50.992;6.798;2022-09-09T04:39:00;100144.78;;;16.09;97.94
2178;BME280;1095;50.992;6.798;2022-09-09T04:41:29;100135.69;;;16.05;97.40
2178;BME280;1095;50.992;6.798;2022-09-09T04:43:58;100139.72;;;16.07;97.22
2178;BME280;1095;50.992;6.798;2022-09-09T04:46:25;100137.06;;;16.07;97.37
2178;BME280;1095;50.992;6.798;2022-09-09T04:48:52;100138.31;;;16.05;97.29
2178;BME280;1095;50.992;6.798;2022-09-09T04:51:19;100137.06;;;16.07;97.58
2178;BME280;1095;50.992;6.798;2022-09-09T04:53:45;100140.75;;;16.06;97.11
2178;BME280;1095;50.992;6.798;2022-09-09T04:56:15;100145.00;;;16.14;96.54
2178;BME280;1095;50.992;6.798;2022-09-09T04:58:43;100145.41;;;16.17;96.38
2178;BME280;1095;50.992;6.798;2022-09-09T05:01:12;100132.19;;;16.11;96.79
2178;BME280;1095;50.992;6.798;2022-09-09T05:03:39;100133.63;;;16.20;95.82
2178;BME280;1095;50.992;6.798;2022-09-09T05:06:08;100136.88;;;16.15;96.51
2178;BME280;1095;50.992;6.798;2022-09-09T05:08:35;100138.69;;;16.15;95.93
2178;BME280;1095;50.992;6.798;2022-09-09T05:11:02;100125.91;;;16.18;96.14
2178;BME280;1095;50.992;6.798;2022-09-09T05:13:29;100136.25;;;16.20;96.08
2178;BME280;1095;50.992;6.798;2022-09-09T05:15:57;100141.13;;;16.23;95.65
2178;BME280;1095;50.992;6.798;2022-09-09T05:18:25;100138.50;;;16.30;95.04
2178;BME280;1095;50.992;6.798;2022-09-09T05:20:52;100137.88;;;16.34;94.58
2178;BME280;1095;50.992;6.798;2022-09-09T05:23:19;100129.97;;;16.34;94.35
2178;BME280;1095;50.992;6.798;2022-09-09T05:25:54;100136.44;;;16.38;93.89
2178;BME280;1095;50.992;6.798;2022-09-09T05:28:22;100132.59;;;16.41;93.96
2178;BME280;1095;50.992;6.798;2022-09-09T05:30:55;100127.72;;;16.38;93.52
2178;BME280;1095;50.992;6.798;2022-09-09T05:33:22;100134.63;;;16.45;93.78
2178;BME280;1095;50.992;6.798;2022-09-09T05:35:56;100136.66;;;16.43;93.59
2178;BME280;1095;50.992;6.798;2022-09-09T05:38:23;100142.72;;;16.50;93.04
2178;BME280;1095;50.992;6.798;2022-09-09T05:40:50;100149.25;;;16.48;92.76
2178;BME280;1095;50.992;6.798;2022-09-09T05:43:20;100144.56;;;16.50;92.06
2178;BME280;1095;50.992;6.798;2022-09-09T05:45:47;100144.78;;;16.48;93.04
2178;BME280;1095;50.992;6.798;2022-09-09T05:48:14;100149.44;;;16.53;92.76
2178;BME280;1095;50.992;6.798;2022-09-09T05:50:41;100151.25;;;16.52;91.94
2178;BME280;1095;50.992;6.798;2022-09-09T05:53:11;100148.38;;;16.60;91.34
2178;BME280;1095;50.992;6.798;2022-09-09T05:55:38;100147.59;;;16.67;90.59
2178;BME280;1095;50.992;6.798;2022-09-09T05:58:04;100148.19;;;16.69;90.66
2178;BME280;1095;50.992;6.798;2022-09-09T06:00:31;100154.47;;;16.74;90.61
2178;BME280;1095;50.992;6.798;2022-09-09T06:02:58;100158.31;;;16.85;90.08
2178;BME280;1095;50.992;6.798;2022-09-09T06:05:25;100160.53;;;16.88;89.99
2178;BME280;1095;50.992;6.798;2022-09-09T06:07:53;100162.97;;;16.89;89.36
2178;BME280;1095;50.992;6.798;2022-09-09T06:10:22;100157.47;;;16.91;89.17
2178;BME280;1095;50.992;6.798;2022-09-09T06:12:49;100152.19;;;16.91;89.45
2178;BME280;1095;50.992;6.798;2022-09-09T06:15:18;100155.84;;;16.90;88.65
2178;BME280;1095;50.992;6.798;2022-09-09T06:17:45;100161.75;;;16.92;89.04
2178;BME280;1095;50.992;6.798;2022-09-09T06:20:12;100154.84;;;16.91;89.56
2178;BME280;1095;50.992;6.798;2022-09-09T06:22:39;100154.63;;;16.99;88.98
2178;BME280;1095;50.992;6.798;2022-09-09T06:25:08;100164.53;;;17.04;89.11
2178;BME280;1095;50.992;6.798;2022-09-09T06:27:36;100150.28;;;17.05;89.11
2178;BME280;1095;50.992;6.798;2022-09-09T06:30:03;100157.81;;;17.08;88.97
2178;BME280;1095;50.992;6.798;2022-09-09T06:32:30;100160.84;;;17.11;87.81
2178;BME280;1095;50.992;6.798;2022-09-09T06:35:02;100161.22;;;17.21;86.85
2178;BME280;1095;50.992;6.798;2022-09-09T06:37:28;100160.56;;;17.33;86.84
2178;BME280;1095;50.992;6.798;2022-09-09T06:39:55;100153.03;;;17.30;86.76
2178;BME280;1095;50.992;6.798;2022-09-09T06:42:21;100156.69;;;17.35;87.35
2178;BME280;1095;50.992;6.798;2022-09-09T06:44:49;100155.03;;;17.41;86.41
2178;BME280;1095;50.992;6.798;2022-09-09T06:47:17;100153.25;;;17.59;85.31
2178;BME280;1095;50.992;6.798;2022-09-09T06:49:44;100165.59;;;17.79;83.88
2178;BME280;1095;50.992;6.798;2022-09-09T06:52:10;100158.25;;;18.31;82.51
2178;BME280;1095;50.992;6.798;2022-09-09T06:54:37;100150.56;;;19.20;78.48
2178;BME280;1095;50.992;6.798;2022-09-09T06:57:03;100155.22;;;20.20;75.35
2178;BME280;1095;50.992;6.798;2022-09-09T06:59:32;100170.09;;;21.31;71.05
2178;BME280;1095;50.992;6.798;2022-09-09T07:02:00;100165.72;;;22.15;68.09
2178;BME280;1095;50.992;6.798;2022-09-09T07:04:27;100160.09;;;22.72;66.56
2178;BME280;1095;50.992;6.798;2022-09-09T07:06:53;100158.72;;;22.87;65.11
2178;BME280;1095;50.992;6.798;2022-09-09T07:09:20;100165.81;;;23.73;63.08
2178;BME280;1095;50.992;6.798;2022-09-09T07:11:48;100162.09;;;24.06;62.27
2178;BME280;1095;50.992;6.798;2022-09-09T07:14:16;100147.50;;;23.06;64.34
2178;BME280;1095;50.992;6.798;2022-09-09T07:16:43;100162.44;;;23.83;62.25
2178;BME280;1095;50.992;6.798;2022-09-09T07:19:12;100158.38;;;24.12;62.10
2178;BME280;1095;50.992;6.798;2022-09-09T07:21:40;100165.97;;;24.73;60.34
2178;BME280;1095;50.992;6.798;2022-09-09T07:24:07;100162.66;;;25.08;58.50
2178;BME280;1095;50.992;6.798;2022-09-09T07:29:18;100164.03;;;25.16;56.84
2178;BME280;1095;50.992;6.798;2022-09-09T07:31:58;100161.06;;;25.12;57.42
2178;BME280;1095;50.992;6.798;2022-09-09T07:34:44;100155.53;;;24.71;58.53
2178;BME280;1095;50.992;6.798;2022-09-09T07:37:32;100157.09;;;24.57;57.51
2178;BME280;1095;50.992;6.798;2022-09-09T07:40:14;100167.16;;;24.40;58.47
2178;BME280;1095;50.992;6.798;2022-09-09T07:42:58;100178.56;;;24.72;57.57
2178;BME280;1095;50.992;6.798;2022-09-09T07:45:43;100179.84;;;25.17;54.91
2178;BME280;1095;50.992;6.798;2022-09-09T07:48:19;100160.09;;;23.60;59.05
2178;BME280;1095;50.992;6.798;2022-09-09T07:51:09;100163.22;;;22.09;63.41
2178;BME280;1095;50.992;6.798;2022-09-09T07:53:44;100158.34;;;21.89;63.81
2178;BME280;1095;50.992;6.798;2022-09-09T07:56:31;100165.34;;;21.33;65.11
2178;BME280;1095;50.992;6.798;2022-09-09T07:59:07;100142.47;;;20.80;65.78
2178;BME280;1095;50.992;6.798;2022-09-09T08:02:03;100146.56;;;20.48;64.96
2178;BME280;1095;50.992;6.798;2022-09-09T08:04:39;100138.25;;;20.56;64.62
2178;BME280;1095;50.992;6.798;2022-09-09T08:07:13;100147.47;;;20.77;65.75
2178;BME280;1095;50.992;6.798;2022-09-09T08:09:41;100155.56;;;21.10;64.34
2178;BME280;1095;50.992;6.798;2022-09-09T08:12:09;100160.19;;;21.72;62.37
2178;BME280;1095;50.992;6.798;2022-09-09T08:14:36;100166.31;;;22.78;60.00
2178;BME280;1095;50.992;6.798;2022-09-09T08:17:03;100173.16;;;23.56;56.18
2178;BME280;1095;50.992;6.798;2022-09-09T08:19:30;100170.44;;;22.47;59.12
2178;BME280;1095;50.992;6.798;2022-09-09T08:21:59;100168.13;;;22.34;59.63
2178;BME280;1095;50.992;6.798;2022-09-09T08:24:28;100177.16;;;22.71;59.37
2178;BME280;1095;50.992;6.798;2022-09-09T08:26:55;100169.28;;;21.76;61.79
2178;BME280;1095;50.992;6.798;2022-09-09T08:29:23;100148.19;;;21.41;62.88
2178;BME280;1095;50.992;6.798;2022-09-09T08:31:51;100170.44;;;21.35;63.45
2178;BME280;1095;50.992;6.798;2022-09-09T08:34:20;100169.25;;;21.02;64.55
2178;BME280;1095;50.992;6.798;2022-09-09T08:36:47;100155.97;;;21.59;64.21
2178;BME280;1095;50.992;6.798;2022-09-09T08:39:16;100174.19;;;21.50;63.45
2178;BME280;1095;50.992;6.798;2022-09-09T08:41:59;100169.03;;;21.32;62.88
2178;BME280;1095;50.992;6.798;2022-09-09T08:44:41;100165.69;;;21.37;61.93
2178;BME280;1095;50.992;6.798;2022-09-09T08:47:18;100172.09;;;21.52;60.66
2178;BME280;1095;50.992;6.798;2022-09-09T08:50:04;100174.16;;;21.96;60.36
2178;BME280;1095;50.992;6.798;2022-09-09T08:52:37;100180.56;;;22.28;59.70
2178;BME280;1095;50.992;6.798;2022-09-09T08:55:18;100177.41;;;22.31;58.50
2178;BME280;1095;50.992;6.798;2022-09-09T08:57:49;100176.25;;;21.94;58.30
2178;BME280;1095;50.992;6.798;2022-09-09T09:00:17;100179.25;;;21.97;59.19
2178;BME280;1095;50.992;6.798;2022-09-09T09:02:54;100175.16;;;22.06;58.03
2178;BME280;1095;50.992;6.798;2022-09-09T09:05:30;100170.91;;;21.77;58.89
2178;BME280;1095;50.992;6.798;2022-09-09T09:08:08;100181.09;;;21.80;59.30
2178;BME280;1095;50.992;6.798;2022-09-09T09:10:45;100179.13;;;21.59;59.70
2178;BME280;1095;50.992;6.798;2022-09-09T09:13:18;100173.16;;;21.11;60.92
2178;BME280;1095;50.992;6.798;2022-09-09T09:15:46;100183.94;;;21.45;60.02
2178;BME280;1095;50.992;6.798;2022-09-09T09:18:16;100177.75;;;21.28;60.73
2178;BME280;1095;50.992;6.798;2022-09-09T09:20:50;100178.09;;;21.19;61.90
2178;BME280;1095;50.992;6.798;2022-09-09T09:23:22;100185.78;;;21.44;60.86
2178;BME280;1095;50.992;6.798;2022-09-09T09:25:50;100182.13;;;21.34;61.42
2178;BME280;1095;50.992;6.798;2022-09-09T09:28:23;100183.25;;;20.98;61.15
2178;BME280;1095;50.992;6.798;2022-09-09T09:30:53;100189.56;;;20.68;62.74
2178;BME280;1095;50.992;6.798;2022-09-09T09:33:26;100176.94;;;20.52;63.58
2178;BME280;1095;50.992;6.798;2022-09-09T09:35:54;100179.94;;;20.79;63.07
2178;BME280;1095;50.992;6.798;2022-09-09T09:38:22;100183.97;;;20.81;63.93
2178;BME280;1095;50.992;6.798;2022-09-09T09:40:50;100182.09;;;20.94;63.83
2178;BME280;1095;50.992;6.798;2022-09-09T09:43:26;100188.75;;;20.68;64.80
2178;BME280;1095;50.992;6.798;2022-09-09T09:45:53;100182.03;;;20.77;64.83
2178;BME280;1095;50.992;6.798;2022-09-09T09:48:20;100178.63;;;20.81;65.11
2178;BME280;1095;50.992;6.798;2022-09-09T09:50:49;100173.31;;;20.81;64.50
2178;BME280;1095;50.992;6.798;2022-09-09T09:53:20;100178.59;;;21.05;64.54
2178;BME280;1095;50.992;6.798;2022-09-09T09:55:52;100182.66;;;20.96;64.62
2178;BME280;1095;50.992;6.798;2022-09-09T09:58:20;100186.78;;;21.27;64.06
2178;BME280;1095;50.992;6.798;2022-09-09T10:00:52;100179.41;;;21.45;63.99
2178;BME280;1095;50.992;6.798;2022-09-09T10:03:23;100186.28;;;21.30;63.17
2178;BME280;1095;50.992;6.798;2022-09-09T10:05:51;100169.44;;;21.52;63.36
2178;BME280;1095;50.992;6.798;2022-09-09T10:08:18;100170.75;;;21.67;62.96
2178;BME280;1095;50.992;6.798;2022-09-09T10:11:03;100178.72;;;22.12;61.92
2178;BME280;1095;50.992;6.798;2022-09-09T10:13:39;100181.19;;;22.52;60.85
2178;BME280;1095;50.992;6.798;2022-09-09T10:16:22;100177.84;;;21.61;60.49
2178;BME280;1095;50.992;6.798;2022-09-09T10:18:59;100174.31;;;21.72;60.56
2178;BME280;1095;50.992;6.798;2022-09-09T10:21:38;100173.50;;;21.89;61.46
2178;BME280;1095;50.992;6.798;2022-09-09T10:24:26;100172.75;;;22.05;60.92
2178;BME280;1095;50.992;6.798;2022-09-09T10:27:03;100172.66;;;21.55;62.01
2178;BME280;1095;50.992;6.798;2022-09-09T10:29:53;100173.50;;;21.72;62.45
2178;BME280;1095;50.992;6.798;2022-09-09T10:32:38;100177.28;;;22.21;61.18
2178;BME280;1095;50.992;6.798;2022-09-09T10:35:12;100172.38;;;22.51;59.63
2178;BME280;1095;50.992;6.798;2022-09-09T10:37:54;100169.16;;;22.33;60.77
2178;BME280;1095;50.992;6.798;2022-09-09T10:40:32;100178.34;;;22.59;60.06
2178;BME280;1095;50.992;6.798;2022-09-09T10:43:07;100179.03;;;23.09;59.01
2178;BME280;1095;50.992;6.798;2022-09-09T10:45:49;100164.19;;;22.97;59.14
2178;BME280;1095;50.992;6.798;2022-09-09T10:48:42;100166.50;;;22.71;59.39
2178;BME280;1095;50.992;6.798;2022-09-09T10:51:23;100174.38;;;22.61;59.44
2178;BME280;1095;50.992;6.798;2022-09-09T10:54:03;100165.59;;;22.44;60.12
2178;BME280;1095;50.992;6.798;2022-09-09T10:56:34;100162.97;;;22.66;60.37
2178;BME280;1095;50.992;6.798;2022-09-09T10:59:04;100158.56;;;23.20;59.27
2178;BME280;1095;50.992;6.798;2022-09-09T11:01:37;100156.25;;;23.29;58.64
2178;BME280;1095;50.992;6.798;2022-09-09T11:04:15;100154.13;;;22.82;58.96
2178;BME280;1095;50.992;6.798;2022-09-09T11:06:47;100158.91;;;22.41;58.86
2178;BME280;1095;50.992;6.798;2022-09-09T11:09:21;100159.63;;;22.37;59.52
2178;BME280;1095;50.992;6.798;2022-09-09T11:11:52;100154.13;;;21.93;59.19
2178;BME280;1095;50.992;6.798;2022-09-09T11:14:25;100153.97;;;21.83;58.81
2178;BME280;1095;50.992;6.798;2022-09-09T11:16:58;100155.25;;;21.80;59.01
2178;BME280;1095;50.992;6.798;2022-09-09T11:19:30;100162.00;;;21.55;61.03
2178;BME280;1095;50.992;6.798;2022-09-09T11:22:00;100153.59;;;21.46;62.56
2178;BME280;1095;50.992;6.798;2022-09-09T11:24:33;100141.63;;;21.60;62.77
2178;BME280;1095;50.992;6.798;2022-09-09T11:27:08;100139.13;;;21.70;62.15
2178;BME280;1095;50.992;6.798;2022-09-09T11:35:46;100151.09;;;22.01;61.13
2178;BME280;1095;50.992;6.798;2022-09-09T11:38:19;100151.22;;;21.78;60.70
2178;BME280;1095;50.992;6.798;2022-09-09T11:40:55;100143.66;;;21.70;61.01
2178;BME280;1095;50.992;6.798;2022-09-09T11:43:24;100144.75;;;21.57;61.20
2178;BME280;1095;50.992;6.798;2022-09-09T11:45:53;100149.66;;;21.48;61.26
2178;BME280;1095;50.992;6.798;2022-09-09T11:48:25;100144.75;;;21.29;62.20
2178;BME280;1095;50.992;6.798;2022-09-09T11:51:03;100142.09;;;21.29;62.92
2178;BME280;1095;50.992;6.798;2022-09-09T11:53:31;100148.03;;;21.19;62.58
2178;BME280;1095;50.992;6.798;2022-09-09T11:56:04;100147.94;;;21.26;62.34
2178;BME280;1095;50.992;6.798;2022-09-09T11:58:43;100151.06;;;21.23;62.35
2178;BME280;1095;50.992;6.798;2022-09-09T12:01:39;100155.78;;;21.20;62.80
2178;BME280;1095;50.992;6.798;2022-09-09T12:07:02;100146.09;;;21.03;65.29
2178;BME280;1095;50.992;6.798;2022-09-09T12:09:38;100153.31;;;20.91;64.29
2178;BME280;1095;50.992;6.798;2022-09-09T12:12:23;100159.66;;;21.01;65.18
2178;BME280;1095;50.992;6.798;2022-09-09T12:15:19;100160.31;;;20.45;70.11
2178;BME280;1095;50.992;6.798;2022-09-09T12:17:48;100146.31;;;20.14;73.17
2178;BME280;1095;50.992;6.798;2022-09-09T12:20:18;100144.03;;;20.30;74.83
2178;BME280;1095;50.992;6.798;2022-09-09T12:22:56;100158.00;;;20.60;73.71
2178;BME280;1095;50.992;6.798;2022-09-09T12:25:32;100151.81;;;20.83;72.75
2178;BME280;1095;50.992;6.798;2022-09-09T12:28:06;100151.31;;;20.98;74.32
2178;BME280;1095;50.992;6.798;2022-09-09T12:30:42;100147.25;;;21.07;71.60
2178;BME280;1095;50.992;6.798;2022-09-09T12:33:17;100151.97;;;20.65;71.81
2178;BME280;1095;50.992;6.798;2022-09-09T12:35:51;100171.06;;;20.50;74.46
2178;BME280;1095;50.992;6.798;2022-09-09T12:38:25;100192.91;;;19.75;77.79
2178;BME280;1095;50.992;6.798;2022-09-09T12:40:55;100204.50;;;18.78;85.06
2178;BME280;1095;50.992;6.798;2022-09-09T12:43:24;100216.78;;;18.22;89.67
2178;BME280;1095;50.992;6.798;2022-09-09T12:45:54;100202.66;;;17.79;92.38
2178;BME280;1095;50.992;6.798;2022-09-09T12:48:28;100191.06;;;18.30;94.54
2178;BME280;1095;50.992;6.798;2022-09-09T12:50:59;100172.13;;;19.24;92.36
2178;BME280;1095;50.992;6.798;2022-09-09T12:53:30;100174.69;;;20.02;90.30
2178;BME280;1095;50.992;6.798;2022-09-09T12:56:01;100163.44;;;20.30;83.66
2178;BME280;1095;50.992;6.798;2022-09-09T12:58:29;100159.63;;;20.61;84.61
2178;BME280;1095;50.992;6.798;2022-09-09T13:00:59;100165.03;;;20.66;85.52
2178;BME280;1095;50.992;6.798;2022-09-09T13:03:26;100160.88;;;20.70;84.03
2178;BME280;1095;50.992;6.798;2022-09-09T13:05:57;100147.72;;;20.64;82.09
2178;BME280;1095;50.992;6.798;2022-09-09T13:08:26;100146.91;;;21.03;80.07
2178;BME280;1095;50.992;6.798;2022-09-09T13:10:58;100148.91;;;21.36;81.46
2178;BME280;1095;50.992;6.798;2022-09-09T13:13:27;100149.00;;;21.41;79.88
2178;BME280;1095;50.992;6.798;2022-09-09T13:15:57;100149.44;;;21.10;79.07
2178;BME280;1095;50.992;6.798;2022-09-09T13:18:27;100145.59;;;21.17;77.35
2178;BME280;1095;50.992;6.798;2022-09-09T13:20:55;100135.66;;;21.25;77.47
2178;BME280;1095;50.992;6.798;2022-09-09T13:23:27;100129.97;;;21.49;76.89
2178;BME280;1095;50.992;6.798;2022-09-09T13:25:56;100125.06;;;21.75;76.84
2178;BME280;1095;50.992;6.798;2022-09-09T13:28:25;100119.22;;;21.73;73.80
2178;BME280;1095;50.992;6.798;2022-09-09T13:30:59;100115.53;;;21.45;72.64
2178;BME280;1095;50.992;6.798;2022-09-09T13:33:31;100122.38;;;21.13;74.52
2178;BME280;1095;50.992;6.798;2022-09-09T13:35:59;100108.03;;;21.14;74.32
2178;BME280;1095;50.992;6.798;2022-09-09T13:38:32;100108.88;;;21.03;75.18
2178;BME280;1095;50.992;6.798;2022-09-09T13:41:01;100116.59;;;20.76;74.45
2178;BME280;1095;50.992;6.798;2022-09-09T13:43:31;100116.13;;;20.79;74.04
2178;BME280;1095;50.992;6.798;2022-09-09T13:46:00;100107.72;;;20.59;74.13
2178;BME280;1095;50.992;6.798;2022-09-09T13:48:28;100107.75;;;20.87;73.08
2178;BME280;1095;50.992;6.798;2022-09-09T13:50:57;100108.88;;;21.03;72.83
2178;BME280;1095;50.992;6.798;2022-09-09T13:53:23;100108.34;;;20.89;73.78
2178;BME280;1095;50.992;6.798;2022-09-09T13:55:51;100104.72;;;20.95;73.00
2178;BME280;1095;50.992;6.798;2022-09-09T13:58:19;100110.88;;;20.84;74.38
2178;BME280;1095;50.992;6.798;2022-09-09T14:00:48;100126.22;;;20.65;77.62